createdAt,value
2023-06-25T00:00:19.401Z,22.15
2023-06-25T00:02:52.070Z,22.02
2023-06-25T00:05:25.626Z,22.48
2023-06-25T00:08:00.923Z,22.60
2023-06-25T00:10:35.802Z,20.85
2023-06-25T00:13:11.058Z,20.50
2023-06-25T00:15:44.189Z,19.75
2023-06-25T00:18:17.491Z,21.67
2023-06-25T00:20:51.868Z,20.85
2023-06-25T00:23:28.333Z,19.85
2023-06-25T00:26:01.821Z,20.02
2023-06-25T00:28:35.087Z,22.17
2023-06-25T00:31:08.553Z,21.42
2023-06-25T00:33:41.749Z,21.73
2023-06-25T00:36:14.857Z,20.85
2023-06-25T00:38:50.816Z,21.83
2023-06-25T00:41:24.240Z,21.05
2023-06-25T00:43:58.116Z,21.75
2023-06-25T00:46:32.887Z,20.88
2023-06-25T00:49:08.123Z,20.67
2023-06-25T00:51:42.755Z,18.50
2023-06-25T00:54:18.371Z,18.15
2023-06-25T00:56:52.018Z,21.83
2023-06-25T00:59:26.921Z,20.90
2023-06-25T01:02:05.973Z,20.67
2023-06-25T01:04:45.384Z,21.85
2023-06-25T01:07:25.538Z,20.77
2023-06-25T01:10:04.369Z,21.42
2023-06-25T01:12:38.419Z,19.60
2023-06-25T01:15:15.048Z,22.13
2023-06-25T01:17:51.694Z,20.23
2023-06-25T01:20:25.115Z,19.48
2023-06-25T01:23:01.534Z,18.55
2023-06-25T01:25:34.950Z,20.58
2023-06-25T01:28:09.112Z,20.00
2023-06-25T01:30:42.339Z,22.65
2023-06-25T01:33:21.894Z,21.52
2023-06-25T01:35:55.765Z,21.10
2023-06-25T01:38:32.087Z,23.60
2023-06-25T01:41:05.823Z,22.45
2023-06-25T01:43:39.035Z,22.33
2023-06-25T01:46:12.220Z,21.80
2023-06-25T01:48:45.561Z,25.77
2023-06-25T01:51:19.734Z,24.83
2023-06-25T01:53:55.122Z,21.92
2023-06-25T01:56:28.022Z,27.00
2023-06-25T01:59:01.235Z,26.10
2023-06-25T02:01:34.510Z,26.60
2023-06-25T02:04:09.571Z,25.00
2023-06-25T02:06:42.804Z,28.02
2023-06-25T02:09:19.042Z,28.15
2023-06-25T02:11:53.714Z,27.60
2023-06-25T02:14:27.514Z,27.95
2023-06-25T02:17:01.068Z,27.23
2023-06-25T02:19:34.401Z,27.85
2023-06-25T02:22:07.438Z,29.13
2023-06-25T02:24:42.960Z,29.20
2023-06-25T02:27:17.309Z,29.75
2023-06-25T02:29:51.403Z,29.88
2023-06-25T02:32:24.684Z,30.42
2023-06-25T02:34:58.002Z,31.33
2023-06-25T02:37:32.719Z,30.60
2023-06-25T02:40:08.988Z,33.25
2023-06-25T02:42:44.057Z,33.17
2023-06-25T02:45:19.884Z,32.20
2023-06-25T02:47:54.435Z,35.00
2023-06-25T02:50:28.058Z,33.75
2023-06-25T02:53:02.115Z,32.10
2023-06-25T02:55:41.675Z,34.08
2023-06-25T02:58:15.619Z,32.95
2023-06-25T03:00:50.425Z,31.75
2023-06-25T03:03:23.910Z,32.40
2023-06-25T03:05:57.311Z,30.40
2023-06-25T03:08:32.846Z,35.45
2023-06-25T03:11:09.922Z,34.97
2023-06-25T03:13:43.654Z,35.13
2023-06-25T03:16:17.094Z,31.80
2023-06-25T03:18:50.815Z,32.72
2023-06-25T03:21:24.878Z,33.25
2023-06-25T03:24:00.776Z,34.33
2023-06-25T03:26:36.790Z,33.30
2023-06-25T03:29:10.632Z,31.10
2023-06-25T03:31:47.614Z,29.30
2023-06-25T03:34:24.739Z,28.98
2023-06-25T03:37:02.055Z,34.92
2023-06-25T03:39:35.909Z,30.98
2023-06-25T03:42:14.513Z,34.50
2023-06-25T03:44:52.503Z,30.85
2023-06-25T03:47:32.860Z,36.35
2023-06-25T03:50:08.309Z,34.65
2023-06-25T03:52:42.952Z,32.90
2023-06-25T03:55:16.902Z,31.50
2023-06-25T03:57:53.565Z,33.75
2023-06-25T04:00:28.234Z,33.50
2023-06-25T04:03:01.653Z,32.70
2023-06-25T04:05:36.344Z,31.45
2023-06-25T04:08:12.877Z,33.17
2023-06-25T04:10:55.118Z,31.30
2023-06-25T04:13:32.480Z,33.30
2023-06-25T04:16:06.420Z,39.78
2023-06-25T04:18:40.250Z,34.78
2023-06-25T04:21:13.665Z,41.50
2023-06-25T04:23:46.983Z,37.90
2023-06-25T04:26:19.949Z,40.95
2023-06-25T04:28:55.848Z,37.13
2023-06-25T04:31:30.955Z,36.10
2023-06-25T04:34:04.543Z,35.05
2023-06-25T04:36:38.321Z,35.90
2023-06-25T04:39:12.787Z,38.17
2023-06-25T04:41:47.771Z,31.58
2023-06-25T04:44:24.144Z,31.55
2023-06-25T04:46:57.578Z,35.78
2023-06-25T04:49:30.798Z,34.60
2023-06-25T04:52:04.325Z,34.38
2023-06-25T04:54:39.124Z,36.03
2023-06-25T04:57:12.763Z,32.13
2023-06-25T04:59:50.217Z,33.33
2023-06-25T05:02:23.890Z,35.72
2023-06-25T05:04:57.626Z,35.97
2023-06-25T05:07:31.174Z,37.50
2023-06-25T05:10:05.171Z,40.25
2023-06-25T05:12:39.165Z,37.08
2023-06-25T05:15:15.604Z,35.50
2023-06-25T05:17:50.031Z,37.40
2023-06-25T05:20:24.629Z,37.45
2023-06-25T05:22:58.235Z,34.85
2023-06-25T05:25:31.639Z,37.13
2023-06-25T05:28:07.616Z,39.25
2023-06-25T05:30:43.615Z,37.70
2023-06-25T05:33:17.624Z,38.38
2023-06-25T05:35:51.204Z,37.05
2023-06-25T05:38:24.731Z,39.75
2023-06-25T05:40:58.782Z,38.10
2023-06-25T05:43:32.503Z,39.53
2023-06-25T05:46:08.395Z,37.53
2023-06-25T05:48:42.448Z,37.10
2023-06-25T05:51:19.960Z,38.25
2023-06-25T05:53:57.800Z,36.85
2023-06-25T05:56:31.769Z,34.83
2023-06-25T05:59:05.119Z,38.45
2023-06-25T06:01:41.122Z,37.42
2023-06-25T06:04:14.856Z,40.28
2023-06-25T06:06:48.181Z,35.80
2023-06-25T06:09:23.023Z,32.20
2023-06-25T06:11:56.727Z,38.28
2023-06-25T06:14:34.088Z,34.42
2023-06-25T06:17:12.815Z,34.72
2023-06-25T06:19:47.484Z,32.30
2023-06-25T06:22:21.273Z,35.83
2023-06-25T06:24:55.160Z,33.60
2023-06-25T06:27:28.424Z,32.20
2023-06-25T06:30:02.411Z,35.15
2023-06-25T06:32:37.579Z,35.25
2023-06-25T06:35:12.793Z,34.15
2023-06-25T06:37:47.978Z,34.50
2023-06-25T06:40:22.057Z,33.67
2023-06-25T06:42:55.778Z,34.53
2023-06-25T06:45:30.157Z,31.85
2023-06-25T06:48:07.528Z,30.38
2023-06-25T06:50:42.473Z,29.88
2023-06-25T06:53:15.834Z,30.08
2023-06-25T06:55:50.964Z,29.90
2023-06-25T06:58:24.949Z,31.45
2023-06-25T07:00:58.887Z,31.92
2023-06-25T07:03:35.467Z,33.72
2023-06-25T07:06:08.902Z,32.45
2023-06-25T07:08:42.171Z,30.30
2023-06-25T07:11:20.104Z,31.27
2023-06-25T07:13:53.873Z,31.17
2023-06-25T07:16:30.031Z,32.83
2023-06-25T07:19:05.592Z,31.90
2023-06-25T07:21:40.956Z,31.80
2023-06-25T07:24:14.894Z,31.85
2023-06-25T07:26:48.081Z,31.52
2023-06-25T07:29:21.296Z,31.38
2023-06-25T07:31:55.338Z,32.58
2023-06-25T07:34:30.550Z,31.83
2023-06-25T07:37:04.183Z,31.10
2023-06-25T07:39:38.209Z,29.85
2023-06-25T07:42:13.700Z,29.33
2023-06-25T07:44:56.592Z,28.80
2023-06-25T07:47:32.528Z,27.73
2023-06-25T07:50:09.636Z,27.55
2023-06-25T07:52:42.806Z,27.42
2023-06-25T07:55:16.842Z,30.55
2023-06-25T07:57:50.254Z,27.40
2023-06-25T08:00:24.411Z,28.88
2023-06-25T08:02:58.287Z,30.88
2023-06-25T08:05:35.862Z,29.00
2023-06-25T08:08:11.313Z,28.88
2023-06-25T08:10:44.882Z,31.40
2023-06-25T08:13:18.799Z,28.67
2023-06-25T08:15:52.268Z,28.42
2023-06-25T08:18:25.638Z,29.73
2023-06-25T08:21:01.246Z,30.00
2023-06-25T08:23:35.250Z,29.80
2023-06-25T08:26:11.781Z,31.80
2023-06-25T08:28:47.825Z,30.92
2023-06-25T08:31:22.728Z,30.17
2023-06-25T08:33:56.512Z,30.83
2023-06-25T08:36:31.384Z,31.38
2023-06-25T08:39:04.203Z,29.90
2023-06-25T08:41:37.462Z,30.38
2023-06-25T08:44:11.449Z,30.75
2023-06-25T08:46:51.272Z,31.02
2023-06-25T08:49:28.893Z,28.15
2023-06-25T08:52:08.503Z,30.75
2023-06-25T08:54:43.032Z,29.70
2023-06-25T08:57:17.937Z,29.70
2023-06-25T08:59:51.280Z,28.98
2023-06-25T09:02:24.913Z,27.45
2023-06-25T09:05:07.180Z,30.00
2023-06-25T09:07:49.680Z,28.00
2023-06-25T09:10:25.044Z,27.98
2023-06-25T09:12:59.080Z,27.50
2023-06-25T09:15:35.186Z,29.98
2023-06-25T09:18:09.502Z,28.48
2023-06-25T09:20:52.911Z,29.02
2023-06-25T09:23:31.207Z,28.65
2023-06-25T09:26:12.785Z,28.52
2023-06-25T09:28:54.247Z,28.30
2023-06-25T09:31:27.799Z,28.08
2023-06-25T09:34:01.563Z,27.63
2023-06-25T09:36:39.490Z,28.58
2023-06-25T09:39:16.685Z,27.02
2023-06-25T09:41:51.368Z,28.58
2023-06-25T09:44:27.965Z,27.90
2023-06-25T09:47:08.018Z,26.60
2023-06-25T09:49:43.900Z,25.83
2023-06-25T09:52:19.005Z,25.50
2023-06-25T09:54:56.076Z,27.05
2023-06-25T09:57:30.587Z,25.52
2023-06-25T10:00:04.360Z,26.00
2023-06-25T10:02:44.594Z,26.27
2023-06-25T10:05:18.921Z,27.58
2023-06-25T10:07:52.646Z,27.17
2023-06-25T10:10:31.702Z,26.02
2023-06-25T10:13:08.470Z,25.67
2023-06-25T10:15:42.385Z,24.67
2023-06-25T10:18:16.845Z,25.50
2023-06-25T10:20:52.416Z,25.92
2023-06-25T10:23:29.980Z,25.05
2023-06-25T10:26:06.804Z,25.90
2023-06-25T10:28:40.715Z,25.15
2023-06-25T10:31:23.510Z,25.90
2023-06-25T10:34:07.073Z,25.50
2023-06-25T10:36:40.853Z,26.08
2023-06-25T10:39:15.833Z,25.08
2023-06-25T10:41:52.015Z,24.83
2023-06-25T10:44:32.457Z,23.20
2023-06-25T10:47:10.704Z,23.30
2023-06-25T10:49:44.406Z,22.27
2023-06-25T10:52:19.759Z,24.30
2023-06-25T10:54:53.637Z,23.85
2023-06-25T10:57:30.496Z,24.05
2023-06-25T11:00:05.954Z,23.70
2023-06-25T11:02:39.773Z,22.88
2023-06-25T11:05:14.046Z,21.48
2023-06-25T11:07:47.654Z,23.00
2023-06-25T11:10:20.940Z,22.50
2023-06-25T11:12:56.242Z,22.65
2023-06-25T11:15:29.604Z,22.77
2023-06-25T11:18:05.839Z,22.80
2023-06-25T11:20:39.811Z,23.95
2023-06-25T11:23:15.414Z,23.30
2023-06-25T11:25:49.384Z,21.90
2023-06-25T11:28:28.856Z,21.75
2023-06-25T11:31:04.307Z,21.80
2023-06-25T11:33:37.720Z,22.88
2023-06-25T11:36:16.404Z,22.83
2023-06-25T11:38:50.222Z,23.38
2023-06-25T11:41:34.373Z,24.17
2023-06-25T11:44:20.532Z,25.05
2023-06-25T11:46:56.679Z,23.63
2023-06-25T11:49:31.834Z,24.25
2023-06-25T11:52:09.652Z,23.85
2023-06-25T11:54:42.994Z,25.63
2023-06-25T11:57:18.687Z,24.67
2023-06-25T11:59:53.861Z,25.15
2023-06-25T12:02:40.611Z,25.75
2023-06-25T12:05:18.428Z,24.55
2023-06-25T12:07:51.978Z,22.77
2023-06-25T12:10:25.869Z,24.80
2023-06-25T12:12:58.718Z,23.77
2023-06-25T12:15:34.363Z,21.85
2023-06-25T12:18:07.701Z,20.33
2023-06-25T12:20:42.551Z,19.63
2023-06-25T12:23:16.557Z,21.30
2023-06-25T12:25:49.476Z,21.23
2023-06-25T12:28:22.339Z,20.48
2023-06-25T12:30:58.170Z,20.30
2023-06-25T12:33:33.090Z,21.17
2023-06-25T12:36:06.590Z,20.02
2023-06-25T12:38:40.518Z,20.65
2023-06-25T12:41:15.237Z,20.13
2023-06-25T12:43:49.848Z,23.65
2023-06-25T12:46:24.932Z,29.27
2023-06-25T12:48:58.216Z,33.25
2023-06-25T12:51:33.763Z,35.70
2023-06-25T12:54:07.479Z,34.88
2023-06-25T12:56:41.268Z,34.10
2023-06-25T12:59:15.149Z,31.42
2023-06-25T13:01:51.188Z,32.50
2023-06-25T13:04:24.959Z,33.42
2023-06-25T13:06:58.934Z,34.47
2023-06-25T13:09:33.251Z,35.30
2023-06-25T13:12:08.697Z,35.97
2023-06-25T13:14:45.068Z,35.40
2023-06-25T13:17:21.557Z,32.87
2023-06-25T13:19:55.221Z,32.20
2023-06-25T13:22:29.391Z,31.20
2023-06-25T13:25:02.981Z,32.73
2023-06-25T13:27:38.155Z,33.00
2023-06-25T13:30:12.480Z,34.55
2023-06-25T13:32:48.119Z,30.70
2023-06-25T13:35:21.768Z,32.78
2023-06-25T13:37:56.839Z,31.50
2023-06-25T13:40:30.377Z,33.63
2023-06-25T13:43:03.991Z,34.83
2023-06-25T13:45:37.101Z,35.83
2023-06-25T13:48:13.601Z,36.27
2023-06-25T13:50:47.792Z,36.47
2023-06-25T13:53:21.743Z,37.30
2023-06-25T13:55:56.666Z,36.40
2023-06-25T13:58:31.127Z,36.50
2023-06-25T14:01:06.151Z,37.13
2023-06-25T14:03:42.020Z,33.40
2023-06-25T14:06:15.152Z,34.70
2023-06-25T14:08:48.632Z,33.73
2023-06-25T14:11:26.156Z,30.40
2023-06-25T14:13:59.081Z,29.60
2023-06-25T14:16:34.383Z,30.90
2023-06-25T14:19:24.780Z,28.67
2023-06-25T14:22:02.743Z,28.97
2023-06-25T14:24:36.019Z,29.60
2023-06-25T14:27:09.499Z,25.90
2023-06-25T14:29:43.028Z,26.27
2023-06-25T14:32:16.837Z,25.47
2023-06-25T14:34:51.843Z,26.93
2023-06-25T14:37:24.907Z,28.23
2023-06-25T14:39:58.666Z,30.10
2023-06-25T14:42:35.055Z,35.23
2023-06-25T14:45:08.615Z,33.80
2023-06-25T14:47:42.990Z,36.77
2023-06-25T14:50:18.784Z,36.90
2023-06-25T14:52:54.046Z,35.90
2023-06-25T14:55:37.876Z,39.17
2023-06-25T14:58:14.073Z,35.57
2023-06-25T15:00:47.521Z,37.93
2023-06-25T15:03:21.086Z,35.97
2023-06-25T15:06:08.398Z,37.90
2023-06-25T15:08:42.669Z,37.27
2023-06-25T15:11:16.576Z,37.87
2023-06-25T15:13:53.374Z,39.33
2023-06-25T15:16:28.664Z,39.43
2023-06-25T15:19:04.355Z,41.13
2023-06-25T15:21:40.057Z,41.57
2023-06-25T15:24:14.676Z,42.27
2023-06-25T15:26:50.242Z,42.20
2023-06-25T15:29:23.464Z,44.10
2023-06-25T15:31:56.462Z,40.80
2023-06-25T15:34:29.393Z,42.07
2023-06-25T15:37:05.512Z,42.17
2023-06-25T15:39:39.115Z,38.87
2023-06-25T15:42:12.523Z,38.37
2023-06-25T15:44:45.845Z,37.00
2023-06-25T15:47:19.700Z,39.97
2023-06-25T15:49:55.126Z,36.97
2023-06-25T15:52:30.800Z,38.47
2023-06-25T15:55:06.024Z,38.87
2023-06-25T15:57:42.418Z,42.17
2023-06-25T16:00:16.310Z,40.27
2023-06-25T16:02:49.706Z,40.67
2023-06-25T16:05:23.813Z,39.40
2023-06-25T16:08:00.167Z,41.00
2023-06-25T16:10:33.495Z,40.20
2023-06-25T16:13:08.010Z,41.27
2023-06-25T16:15:44.773Z,39.43
2023-06-25T16:18:19.390Z,40.23
2023-06-25T16:20:53.054Z,39.83
2023-06-25T16:23:28.798Z,39.37
2023-06-25T16:26:02.801Z,40.43
2023-06-25T16:28:40.350Z,40.90
2023-06-25T16:31:14.307Z,41.67
2023-06-25T16:33:49.264Z,41.27
2023-06-25T16:36:22.611Z,42.37
2023-06-25T16:38:59.349Z,41.27
2023-06-25T16:41:33.063Z,41.20
2023-06-25T16:44:06.396Z,40.87
2023-06-25T16:46:42.882Z,42.57
2023-06-25T16:49:17.860Z,41.03
2023-06-25T16:51:51.710Z,41.87
2023-06-25T16:54:27.014Z,42.03
2023-06-25T16:57:02.949Z,45.03
2023-06-25T16:59:36.231Z,44.80
2023-06-25T17:02:10.087Z,43.40
2023-06-25T17:04:44.477Z,45.00
2023-06-25T17:07:18.011Z,43.33
2023-06-25T17:09:54.820Z,43.47
2023-06-25T17:12:28.385Z,43.57
2023-06-25T17:15:03.098Z,43.93
2023-06-25T17:17:36.751Z,44.37
2023-06-25T17:20:11.155Z,44.33
2023-06-25T17:22:44.810Z,42.70
2023-06-25T17:25:20.510Z,40.03
2023-06-25T17:27:54.384Z,39.57
2023-06-25T17:30:27.858Z,40.83
2023-06-25T17:33:01.725Z,38.73
2023-06-25T17:35:35.846Z,38.83
2023-06-25T17:38:09.523Z,37.13
2023-06-25T17:40:45.188Z,37.73
2023-06-25T17:43:22.296Z,38.63
2023-06-25T17:45:55.997Z,40.57
2023-06-25T17:48:30.439Z,40.80
2023-06-25T17:51:04.233Z,39.73
2023-06-25T17:53:40.209Z,39.53
2023-06-25T17:56:15.845Z,39.57
2023-06-25T17:58:49.486Z,39.87
2023-06-25T18:01:23.942Z,38.30
2023-06-25T18:03:57.573Z,38.83
2023-06-25T18:06:31.077Z,38.43
2023-06-25T18:09:04.329Z,35.57
2023-06-25T18:11:39.800Z,43.63
2023-06-25T18:14:13.500Z,41.33
2023-06-25T18:16:47.604Z,45.27
2023-06-25T18:19:22.796Z,44.03
2023-06-25T18:21:56.482Z,42.40
2023-06-25T18:24:30.541Z,46.70
2023-06-25T18:27:06.069Z,44.83
2023-06-25T18:29:39.445Z,45.27
2023-06-25T18:32:13.956Z,45.00
2023-06-25T18:34:47.678Z,45.03
2023-06-25T18:37:24.705Z,47.40
2023-06-25T18:40:00.982Z,44.10
2023-06-25T18:42:37.788Z,43.03
2023-06-25T18:45:15.049Z,44.13
2023-06-25T18:47:50.916Z,39.33
2023-06-25T18:50:25.622Z,43.90
2023-06-25T18:52:58.956Z,41.07
2023-06-25T18:55:33.009Z,44.33
2023-06-25T18:58:08.221Z,43.33
2023-06-25T19:00:43.799Z,45.43
2023-06-25T19:03:18.608Z,44.17
2023-06-25T19:05:52.437Z,47.63
2023-06-25T19:08:27.993Z,44.73
2023-06-25T19:11:01.684Z,45.27
2023-06-25T19:13:39.140Z,46.90
2023-06-25T19:16:13.137Z,48.07
2023-06-25T19:18:47.669Z,48.57
2023-06-25T19:21:21.052Z,47.27
2023-06-25T19:23:57.119Z,48.93
2023-06-25T19:26:30.759Z,46.00
2023-06-25T19:29:08.090Z,46.83
2023-06-25T19:31:44.955Z,48.23
2023-06-25T19:34:19.802Z,49.17
2023-06-25T19:36:55.223Z,46.60
2023-06-25T19:39:28.157Z,45.73
2023-06-25T19:42:01.759Z,46.20
2023-06-25T19:44:36.837Z,41.57
2023-06-25T19:47:12.009Z,41.67
2023-06-25T19:49:45.294Z,44.97
2023-06-25T19:52:18.514Z,57.47
2023-06-25T19:54:51.909Z,56.43
2023-06-25T19:57:26.482Z,55.97
2023-06-25T20:00:01.441Z,56.77
2023-06-25T20:02:34.752Z,56.73
2023-06-25T20:05:08.127Z,58.17
2023-06-25T20:07:41.696Z,54.70
2023-06-25T20:10:15.722Z,57.30
2023-06-25T20:12:50.861Z,55.07
2023-06-25T20:15:26.294Z,55.20
2023-06-25T20:18:00.153Z,54.53
2023-06-25T20:20:33.515Z,54.87
2023-06-25T20:23:06.919Z,56.23
2023-06-25T20:25:42.094Z,53.57
2023-06-25T20:28:15.389Z,53.07
2023-06-25T20:30:50.901Z,50.67
2023-06-25T20:33:24.458Z,50.73
2023-06-25T20:35:58.651Z,48.80
2023-06-25T20:38:32.007Z,50.93
2023-06-25T20:41:23.113Z,52.30
2023-06-25T20:43:58.535Z,51.03
2023-06-25T20:46:33.639Z,51.37
2023-06-25T20:49:07.091Z,49.47
2023-06-25T20:51:40.455Z,50.13
2023-06-25T20:54:13.740Z,50.93
2023-06-25T20:56:49.036Z,50.53
2023-06-25T20:59:23.538Z,51.97
2023-06-25T21:02:08.809Z,48.57
2023-06-25T21:04:41.832Z,51.33
2023-06-25T21:07:14.758Z,51.43
2023-06-25T21:09:47.636Z,49.73
2023-06-25T21:12:20.578Z,48.93
2023-06-25T21:14:54.539Z,49.13
2023-06-25T21:17:32.290Z,51.73
2023-06-25T21:20:06.884Z,51.70
2023-06-25T21:22:42.530Z,48.90
2023-06-25T21:25:16.208Z,51.63
2023-06-25T21:27:49.734Z,50.60
2023-06-25T21:30:25.111Z,51.83
2023-06-25T21:33:02.460Z,53.50
2023-06-25T21:35:37.745Z,52.53
2023-06-25T21:38:11.392Z,51.33
2023-06-25T21:40:44.809Z,52.77
2023-06-25T21:43:18.090Z,53.43
2023-06-25T21:45:51.228Z,53.77
2023-06-25T21:48:25.945Z,53.43
2023-06-25T21:51:01.238Z,51.93
2023-06-25T21:53:36.677Z,53.60
2023-06-25T21:56:10.118Z,55.60
2023-06-25T21:58:45.119Z,53.53
2023-06-25T22:01:18.760Z,54.70
2023-06-25T22:03:53.865Z,54.47
2023-06-25T22:06:29.882Z,54.33
2023-06-25T22:09:06.466Z,55.53
2023-06-25T22:11:39.241Z,54.37
2023-06-25T22:14:12.476Z,53.83
2023-06-25T22:16:45.774Z,53.47
2023-06-25T22:19:22.766Z,53.83
2023-06-25T22:21:56.223Z,55.60
2023-06-25T22:24:29.206Z,53.13
2023-06-25T22:27:02.406Z,54.73
2023-06-25T22:29:42.455Z,51.27
2023-06-25T22:32:17.077Z,52.50
2023-06-25T22:34:52.282Z,51.40
2023-06-25T22:37:25.518Z,52.40
2023-06-25T22:40:00.922Z,51.90
2023-06-25T22:42:34.137Z,51.13
2023-06-25T22:45:07.183Z,51.90
2023-06-25T22:47:41.457Z,50.75
2023-06-25T22:50:17.777Z,51.65
2023-06-25T22:52:52.132Z,53.87
2023-06-25T22:55:27.599Z,52.80
2023-06-25T22:58:02.315Z,51.95
2023-06-25T23:00:37.605Z,50.07
2023-06-25T23:03:11.317Z,49.35
2023-06-25T23:05:47.449Z,49.47
2023-06-25T23:08:20.606Z,49.53
2023-06-25T23:10:53.641Z,50.13
2023-06-25T23:13:29.716Z,49.58
2023-06-25T23:16:05.760Z,50.50
2023-06-25T23:18:39.120Z,51.55
2023-06-25T23:21:14.939Z,51.75
2023-06-25T23:23:49.162Z,52.95
2023-06-25T23:26:24.494Z,53.35
2023-06-25T23:28:58.496Z,54.72
2023-06-25T23:31:32.677Z,53.95
2023-06-25T23:34:06.123Z,54.45
2023-06-25T23:36:41.302Z,54.20
2023-06-25T23:39:15.273Z,51.63
2023-06-25T23:41:49.045Z,51.88
2023-06-25T23:44:22.365Z,50.38
2023-06-25T23:46:55.682Z,46.15
2023-06-25T23:49:29.358Z,44.75
2023-06-25T23:52:05.768Z,49.38
2023-06-25T23:54:40.950Z,48.25
2023-06-25T23:57:14.276Z,48.58
2023-06-25T23:59:47.717Z,48.17
